RJSF/FKS METAR and TAF weather

Enter ICAO airport designator
Station Type Date Time Source
RJSF METAR 2020/04/03 23:37 UTC NOAA

RJSF 032337Z 18008KT 150V210 9999 FEW010 BKN012 11/11 Q1016 RMK 2ST010 5CU012 A3000


Station Type Date Time Source
RJSF Decoded METAR 2020/04/03 23:37 UTC NOAA

Fukushima Airport, Japan (RJSF) 37-14N 140-26E 375M
Apr 03, 2020 - 07:37 PM EDT / 2020.04.03 2337 UTC
Wind: from the S (180 degrees) at 9 MPH (8 KT) (direction variable):0
Visibility: greater than 7 mile(s):0
Sky conditions: mostly cloudy
Temperature: 51 F (11 C)
Dew Point: 51 F (11 C)
Relative Humidity: 100%
Pressure (altimeter): 30.00 in. Hg (1016 hPa)
ob: RJSF 032337Z 18008KT 150V210 9999 FEW010 BKN012 11/11 Q1016 RMK 2ST010 5CU012 A3000
cycle: 23

Station Type Date Time Source
RJSF TAF 2020/04/03 18:30 UTC NOAA

TAF RJSF 031706Z 0318/0500 20008KT 9999 FEW020 SCT030
TEMPO 0318/0400 3000 BR FEW005 BKN008 BKN015
BECMG 0406/0409 34015KT

Example: see airport list